sensor_id;sensor_type;location;lat;lon;timestamp;P1;durP1;ratioP1;P2;durP2;ratioP2
11614;SDS011;5863;52.832;4.758;2024-02-15T00:02:26;16.63;;;3.63;;
11614;SDS011;5863;52.832;4.758;2024-02-15T00:04:53;23.65;;;5.05;;
11614;SDS011;5863;52.832;4.758;2024-02-15T00:07:21;16.58;;;4.43;;
11614;SDS011;5863;52.832;4.758;2024-02-15T00:09:50;16.10;;;4.43;;
11614;SDS011;5863;52.832;4.758;2024-02-15T00:12:16;15.73;;;4.82;;
11614;SDS011;5863;52.832;4.758;2024-02-15T00:14:43;23.38;;;4.32;;
11614;SDS011;5863;52.832;4.758;2024-02-15T00:17:10;19.30;;;4.80;;
11614;SDS011;5863;52.832;4.758;2024-02-15T00:19:38;25.48;;;4.65;;
11614;SDS011;5863;52.832;4.758;2024-02-15T00:22:06;27.02;;;5.18;;
11614;SDS011;5863;52.832;4.758;2024-02-15T00:24:36;25.73;;;5.57;;
11614;SDS011;5863;52.832;4.758;2024-02-15T00:27:04;17.10;;;4.88;;
11614;SDS011;5863;52.832;4.758;2024-02-15T00:29:31;15.90;;;4.28;;
11614;SDS011;5863;52.832;4.758;2024-02-15T00:32:00;28.10;;;5.85;;
11614;SDS011;5863;52.832;4.758;2024-02-15T00:34:28;20.88;;;5.05;;
11614;SDS011;5863;52.832;4.758;2024-02-15T00:36:55;26.45;;;5.22;;
11614;SDS011;5863;52.832;4.758;2024-02-15T00:39:22;24.70;;;5.20;;
11614;SDS011;5863;52.832;4.758;2024-02-15T00:41:49;20.60;;;5.53;;
11614;SDS011;5863;52.832;4.758;2024-02-15T00:44:17;20.75;;;5.50;;
11614;SDS011;5863;52.832;4.758;2024-02-15T00:46:44;24.38;;;5.80;;
11614;SDS011;5863;52.832;4.758;2024-02-15T00:49:11;20.98;;;5.65;;
11614;SDS011;5863;52.832;4.758;2024-02-15T00:51:38;21.33;;;6.20;;
11614;SDS011;5863;52.832;4.758;2024-02-15T00:54:05;23.98;;;6.07;;
11614;SDS011;5863;52.832;4.758;2024-02-15T00:56:32;23.30;;;6.65;;
11614;SDS011;5863;52.832;4.758;2024-02-15T00:58:59;20.38;;;6.00;;
11614;SDS011;5863;52.832;4.758;2024-02-15T01:01:28;21.02;;;5.90;;
11614;SDS011;5863;52.832;4.758;2024-02-15T01:03:55;24.95;;;5.75;;
11614;SDS011;5863;52.832;4.758;2024-02-15T01:06:22;23.02;;;5.80;;
11614;SDS011;5863;52.832;4.758;2024-02-15T01:08:49;25.92;;;6.43;;
11614;SDS011;5863;52.832;4.758;2024-02-15T01:11:16;22.52;;;6.25;;
11614;SDS011;5863;52.832;4.758;2024-02-15T01:13:43;21.83;;;6.00;;
11614;SDS011;5863;52.832;4.758;2024-02-15T01:16:10;29.00;;;5.80;;
11614;SDS011;5863;52.832;4.758;2024-02-15T01:18:38;22.63;;;5.80;;
11614;SDS011;5863;52.832;4.758;2024-02-15T01:21:05;21.98;;;5.05;;
11614;SDS011;5863;52.832;4.758;2024-02-15T01:23:32;22.25;;;5.30;;
11614;SDS011;5863;52.832;4.758;2024-02-15T01:26:01;21.80;;;5.00;;
11614;SDS011;5863;52.832;4.758;2024-02-15T01:28:30;23.63;;;5.22;;
11614;SDS011;5863;52.832;4.758;2024-02-15T01:30:57;22.08;;;4.97;;
11614;SDS011;5863;52.832;4.758;2024-02-15T01:33:24;22.55;;;4.75;;
11614;SDS011;5863;52.832;4.758;2024-02-15T01:35:53;21.15;;;4.82;;
11614;SDS011;5863;52.832;4.758;2024-02-15T01:38:20;19.40;;;4.47;;
11614;SDS011;5863;52.832;4.758;2024-02-15T01:40:47;25.90;;;4.80;;
11614;SDS011;5863;52.832;4.758;2024-02-15T01:43:14;19.58;;;4.75;;
11614;SDS011;5863;52.832;4.758;2024-02-15T01:45:41;21.42;;;4.43;;
11614;SDS011;5863;52.832;4.758;2024-02-15T01:48:08;23.17;;;3.70;;
11614;SDS011;5863;52.832;4.758;2024-02-15T01:50:36;17.20;;;4.15;;
11614;SDS011;5863;52.832;4.758;2024-02-15T01:53:05;20.00;;;4.30;;
11614;SDS011;5863;52.832;4.758;2024-02-15T01:55:34;27.67;;;4.63;;
11614;SDS011;5863;52.832;4.758;2024-02-15T01:58:01;22.33;;;4.60;;
11614;SDS011;5863;52.832;4.758;2024-02-15T02:00:29;17.70;;;3.95;;
11614;SDS011;5863;52.832;4.758;2024-02-15T02:02:57;21.25;;;5.18;;
11614;SDS011;5863;52.832;4.758;2024-02-15T02:05:27;13.85;;;5.13;;
11614;SDS011;5863;52.832;4.758;2024-02-15T02:07:55;16.38;;;5.55;;
11614;SDS011;5863;52.832;4.758;2024-02-15T02:10:27;21.63;;;5.97;;
11614;SDS011;5863;52.832;4.758;2024-02-15T02:12:57;15.85;;;5.18;;
11614;SDS011;5863;52.832;4.758;2024-02-15T02:15:26;18.67;;;6.07;;
11614;SDS011;5863;52.832;4.758;2024-02-15T02:17:53;24.20;;;7.10;;
11614;SDS011;5863;52.832;4.758;2024-02-15T02:20:20;20.98;;;6.88;;
11614;SDS011;5863;52.832;4.758;2024-02-15T02:22:47;17.80;;;6.22;;
11614;SDS011;5863;52.832;4.758;2024-02-15T02:25:18;18.42;;;6.43;;
11614;SDS011;5863;52.832;4.758;2024-02-15T02:27:45;17.60;;;6.55;;
11614;SDS011;5863;52.832;4.758;2024-02-15T02:30:15;17.77;;;6.22;;
11614;SDS011;5863;52.832;4.758;2024-02-15T02:32:44;15.10;;;6.13;;
11614;SDS011;5863;52.832;4.758;2024-02-15T02:35:11;17.23;;;6.47;;
11614;SDS011;5863;52.832;4.758;2024-02-15T02:37:38;20.40;;;6.22;;
11614;SDS011;5863;52.832;4.758;2024-02-15T02:40:05;17.02;;;5.63;;
11614;SDS011;5863;52.832;4.758;2024-02-15T02:42:35;17.75;;;6.40;;
11614;SDS011;5863;52.832;4.758;2024-02-15T02:45:02;14.07;;;5.50;;
11614;SDS011;5863;52.832;4.758;2024-02-15T02:47:30;17.80;;;5.65;;
11614;SDS011;5863;52.832;4.758;2024-02-15T02:49:57;12.63;;;5.53;;
11614;SDS011;5863;52.832;4.758;2024-02-15T02:52:24;17.05;;;5.32;;
11614;SDS011;5863;52.832;4.758;2024-02-15T02:54:50;15.85;;;5.60;;
11614;SDS011;5863;52.832;4.758;2024-02-15T02:57:17;11.52;;;5.75;;
11614;SDS011;5863;52.832;4.758;2024-02-15T02:59:45;11.45;;;6.07;;
11614;SDS011;5863;52.832;4.758;2024-02-15T03:02:12;17.15;;;5.78;;
11614;SDS011;5863;52.832;4.758;2024-02-15T03:04:39;14.88;;;5.75;;
11614;SDS011;5863;52.832;4.758;2024-02-15T03:07:06;14.02;;;6.05;;
11614;SDS011;5863;52.832;4.758;2024-02-15T03:09:34;11.45;;;6.15;;
11614;SDS011;5863;52.832;4.758;2024-02-15T03:12:02;13.05;;;6.30;;
11614;SDS011;5863;52.832;4.758;2024-02-15T03:14:29;17.60;;;6.85;;
11614;SDS011;5863;52.832;4.758;2024-02-15T03:16:58;10.90;;;6.30;;
11614;SDS011;5863;52.832;4.758;2024-02-15T03:19:28;14.50;;;6.25;;
11614;SDS011;5863;52.832;4.758;2024-02-15T03:21:55;13.75;;;6.45;;
11614;SDS011;5863;52.832;4.758;2024-02-15T03:24:22;14.80;;;6.32;;
11614;SDS011;5863;52.832;4.758;2024-02-15T03:26:49;14.90;;;6.60;;
11614;SDS011;5863;52.832;4.758;2024-02-15T03:29:17;14.02;;;6.88;;
11614;SDS011;5863;52.832;4.758;2024-02-15T03:31:45;16.75;;;6.60;;
11614;SDS011;5863;52.832;4.758;2024-02-15T03:34:14;16.17;;;7.03;;
11614;SDS011;5863;52.832;4.758;2024-02-15T03:36:41;17.20;;;7.40;;
11614;SDS011;5863;52.832;4.758;2024-02-15T03:39:08;12.75;;;6.93;;
11614;SDS011;5863;52.832;4.758;2024-02-15T03:41:34;11.57;;;7.20;;
11614;SDS011;5863;52.832;4.758;2024-02-15T03:44:01;16.92;;;7.63;;
11614;SDS011;5863;52.832;4.758;2024-02-15T03:46:29;20.40;;;7.32;;
11614;SDS011;5863;52.832;4.758;2024-02-15T03:48:55;13.15;;;7.13;;
11614;SDS011;5863;52.832;4.758;2024-02-15T03:51:24;16.27;;;7.45;;
11614;SDS011;5863;52.832;4.758;2024-02-15T03:53:51;15.07;;;7.72;;
11614;SDS011;5863;52.832;4.758;2024-02-15T03:56:18;11.13;;;7.40;;
11614;SDS011;5863;52.832;4.758;2024-02-15T03:58:46;16.73;;;7.50;;
11614;SDS011;5863;52.832;4.758;2024-02-15T04:01:15;20.02;;;8.32;;
11614;SDS011;5863;52.832;4.758;2024-02-15T04:03:42;14.85;;;8.65;;
11614;SDS011;5863;52.832;4.758;2024-02-15T04:06:09;15.30;;;8.30;;
11614;SDS011;5863;52.832;4.758;2024-02-15T04:08:37;15.35;;;7.80;;
11614;SDS011;5863;52.832;4.758;2024-02-15T04:11:04;17.15;;;8.55;;
11614;SDS011;5863;52.832;4.758;2024-02-15T04:13:32;19.27;;;8.82;;
11614;SDS011;5863;52.832;4.758;2024-02-15T04:15:59;12.40;;;7.78;;
11614;SDS011;5863;52.832;4.758;2024-02-15T04:18:26;16.70;;;8.27;;
11614;SDS011;5863;52.832;4.758;2024-02-15T04:20:57;11.80;;;7.85;;
11614;SDS011;5863;52.832;4.758;2024-02-15T04:23:24;17.17;;;8.75;;
11614;SDS011;5863;52.832;4.758;2024-02-15T04:25:52;19.88;;;8.32;;
11614;SDS011;5863;52.832;4.758;2024-02-15T04:28:19;21.65;;;8.32;;
11614;SDS011;5863;52.832;4.758;2024-02-15T04:30:46;14.82;;;7.40;;
11614;SDS011;5863;52.832;4.758;2024-02-15T04:33:14;18.25;;;8.13;;
11614;SDS011;5863;52.832;4.758;2024-02-15T04:35:41;16.20;;;8.18;;
11614;SDS011;5863;52.832;4.758;2024-02-15T04:38:09;16.00;;;7.93;;
11614;SDS011;5863;52.832;4.758;2024-02-15T04:40:35;14.35;;;7.25;;
11614;SDS011;5863;52.832;4.758;2024-02-15T04:43:05;18.10;;;8.13;;
11614;SDS011;5863;52.832;4.758;2024-02-15T04:45:33;15.98;;;8.65;;
11614;SDS011;5863;52.832;4.758;2024-02-15T04:48:00;15.20;;;8.38;;
11614;SDS011;5863;52.832;4.758;2024-02-15T04:50:28;25.45;;;9.15;;
11614;SDS011;5863;52.832;4.758;2024-02-15T04:52:55;13.82;;;8.15;;
11614;SDS011;5863;52.832;4.758;2024-02-15T04:55:22;15.65;;;7.95;;
11614;SDS011;5863;52.832;4.758;2024-02-15T04:57:51;17.52;;;8.25;;
11614;SDS011;5863;52.832;4.758;2024-02-15T05:00:22;19.23;;;8.23;;
11614;SDS011;5863;52.832;4.758;2024-02-15T05:02:50;15.00;;;8.27;;
11614;SDS011;5863;52.832;4.758;2024-02-15T05:05:18;17.40;;;7.90;;
11614;SDS011;5863;52.832;4.758;2024-02-15T05:07:45;14.75;;;8.38;;
11614;SDS011;5863;52.832;4.758;2024-02-15T05:10:14;16.23;;;8.18;;
11614;SDS011;5863;52.832;4.758;2024-02-15T05:12:41;14.07;;;8.38;;
11614;SDS011;5863;52.832;4.758;2024-02-15T05:15:09;17.52;;;8.70;;
11614;SDS011;5863;52.832;4.758;2024-02-15T05:17:38;14.82;;;8.68;;
11614;SDS011;5863;52.832;4.758;2024-02-15T05:20:06;20.30;;;8.93;;
11614;SDS011;5863;52.832;4.758;2024-02-15T05:22:37;13.52;;;7.95;;
11614;SDS011;5863;52.832;4.758;2024-02-15T05:25:05;18.15;;;8.98;;
11614;SDS011;5863;52.832;4.758;2024-02-15T05:27:33;11.75;;;7.65;;
11614;SDS011;5863;52.832;4.758;2024-02-15T05:30:01;12.85;;;7.82;;
11614;SDS011;5863;52.832;4.758;2024-02-15T05:32:31;10.68;;;7.05;;
11614;SDS011;5863;52.832;4.758;2024-02-15T05:35:00;11.93;;;7.50;;
11614;SDS011;5863;52.832;4.758;2024-02-15T05:37:27;15.60;;;8.00;;
11614;SDS011;5863;52.832;4.758;2024-02-15T05:39:55;10.50;;;7.60;;
11614;SDS011;5863;52.832;4.758;2024-02-15T05:42:22;12.23;;;7.53;;
11614;SDS011;5863;52.832;4.758;2024-02-15T05:44:49;14.55;;;7.93;;
11614;SDS011;5863;52.832;4.758;2024-02-15T05:47:16;11.10;;;7.75;;
11614;SDS011;5863;52.832;4.758;2024-02-15T05:49:43;13.80;;;8.20;;
11614;SDS011;5863;52.832;4.758;2024-02-15T05:52:13;11.23;;;7.43;;
11614;SDS011;5863;52.832;4.758;2024-02-15T05:54:40;9.93;;;7.25;;
11614;SDS011;5863;52.832;4.758;2024-02-15T05:57:07;12.52;;;7.57;;
11614;SDS011;5863;52.832;4.758;2024-02-15T05:59:34;13.43;;;8.38;;
11614;SDS011;5863;52.832;4.758;2024-02-15T06:02:01;13.50;;;8.40;;
11614;SDS011;5863;52.832;4.758;2024-02-15T06:04:28;13.40;;;8.40;;
11614;SDS011;5863;52.832;4.758;2024-02-15T06:06:55;11.70;;;8.10;;
11614;SDS011;5863;52.832;4.758;2024-02-15T06:09:27;12.00;;;7.65;;
11614;SDS011;5863;52.832;4.758;2024-02-15T06:11:55;13.10;;;7.78;;
11614;SDS011;5863;52.832;4.758;2024-02-15T06:14:23;12.57;;;7.95;;
11614;SDS011;5863;52.832;4.758;2024-02-15T06:16:50;10.48;;;7.53;;
11614;SDS011;5863;52.832;4.758;2024-02-15T06:19:20;12.30;;;7.90;;
11614;SDS011;5863;52.832;4.758;2024-02-15T06:21:47;12.57;;;8.65;;
11614;SDS011;5863;52.832;4.758;2024-02-15T06:24:14;12.32;;;9.30;;
11614;SDS011;5863;52.832;4.758;2024-02-15T06:26:42;11.00;;;8.32;;
11614;SDS011;5863;52.832;4.758;2024-02-15T06:29:09;11.52;;;8.02;;
11614;SDS011;5863;52.832;4.758;2024-02-15T06:31:54;14.48;;;8.48;;
11614;SDS011;5863;52.832;4.758;2024-02-15T06:34:38;10.63;;;8.05;;
11614;SDS011;5863;52.832;4.758;2024-02-15T06:37:35;11.02;;;8.60;;
11614;SDS011;5863;52.832;4.758;2024-02-15T06:40:20;10.48;;;8.80;;
11614;SDS011;5863;52.832;4.758;2024-02-15T06:42:49;11.98;;;8.57;;
11614;SDS011;5863;52.832;4.758;2024-02-15T06:45:16;11.35;;;9.02;;
11614;SDS011;5863;52.832;4.758;2024-02-15T06:47:44;11.43;;;9.38;;
11614;SDS011;5863;52.832;4.758;2024-02-15T06:50:11;12.18;;;9.30;;
11614;SDS011;5863;52.832;4.758;2024-02-15T06:52:39;10.73;;;9.60;;
11614;SDS011;5863;52.832;4.758;2024-02-15T06:55:07;14.15;;;9.38;;
11614;SDS011;5863;52.832;4.758;2024-02-15T06:57:36;13.30;;;9.60;;
11614;SDS011;5863;52.832;4.758;2024-02-15T07:00:09;12.05;;;9.80;;
11614;SDS011;5863;52.832;4.758;2024-02-15T07:02:40;12.18;;;9.25;;
11614;SDS011;5863;52.832;4.758;2024-02-15T07:05:09;13.75;;;9.27;;
11614;SDS011;5863;52.832;4.758;2024-02-15T07:07:36;11.32;;;8.88;;
11614;SDS011;5863;52.832;4.758;2024-02-15T07:10:04;10.38;;;8.82;;
11614;SDS011;5863;52.832;4.758;2024-02-15T07:12:31;11.05;;;8.77;;
11614;SDS011;5863;52.832;4.758;2024-02-15T07:14:58;13.38;;;8.88;;
11614;SDS011;5863;52.832;4.758;2024-02-15T07:17:27;9.85;;;8.27;;
11614;SDS011;5863;52.832;4.758;2024-02-15T07:19:54;10.20;;;7.50;;
11614;SDS011;5863;52.832;4.758;2024-02-15T07:22:21;9.75;;;7.60;;
11614;SDS011;5863;52.832;4.758;2024-02-15T07:24:48;9.77;;;7.43;;
11614;SDS011;5863;52.832;4.758;2024-02-15T07:27:15;10.45;;;7.15;;
11614;SDS011;5863;52.832;4.758;2024-02-15T07:29:43;7.68;;;6.88;;
11614;SDS011;5863;52.832;4.758;2024-02-15T07:32:10;6.85;;;5.93;;
11614;SDS011;5863;52.832;4.758;2024-02-15T07:34:38;6.47;;;5.78;;
11614;SDS011;5863;52.832;4.758;2024-02-15T07:37:06;6.78;;;6.07;;
11614;SDS011;5863;52.832;4.758;2024-02-15T07:39:34;8.10;;;6.60;;
11614;SDS011;5863;52.832;4.758;2024-02-15T07:42:01;8.85;;;6.78;;
11614;SDS011;5863;52.832;4.758;2024-02-15T07:44:29;25.77;;;9.15;;
11614;SDS011;5863;52.832;4.758;2024-02-15T07:46:57;9.07;;;6.05;;
11614;SDS011;5863;52.832;4.758;2024-02-15T07:49:25;8.15;;;5.35;;
11614;SDS011;5863;52.832;4.758;2024-02-15T07:51:54;6.05;;;5.20;;
11614;SDS011;5863;52.832;4.758;2024-02-15T07:54:20;6.07;;;4.85;;
11614;SDS011;5863;52.832;4.758;2024-02-15T07:56:49;6.22;;;4.93;;
11614;SDS011;5863;52.832;4.758;2024-02-15T07:59:16;6.28;;;5.43;;
11614;SDS011;5863;52.832;4.758;2024-02-15T08:01:43;6.90;;;5.07;;
11614;SDS011;5863;52.832;4.758;2024-02-15T08:04:12;6.38;;;5.47;;
11614;SDS011;5863;52.832;4.758;2024-02-15T08:06:39;5.65;;;5.10;;
11614;SDS011;5863;52.832;4.758;2024-02-15T08:09:08;5.70;;;5.18;;
11614;SDS011;5863;52.832;4.758;2024-02-15T08:11:38;5.82;;;5.20;;
11614;SDS011;5863;52.832;4.758;2024-02-15T08:14:06;6.15;;;5.20;;
11614;SDS011;5863;52.832;4.758;2024-02-15T08:16:35;5.70;;;4.72;;
11614;SDS011;5863;52.832;4.758;2024-02-15T08:19:05;5.53;;;5.03;;
11614;SDS011;5863;52.832;4.758;2024-02-15T08:21:32;5.70;;;5.07;;
11614;SDS011;5863;52.832;4.758;2024-02-15T08:24:01;5.82;;;5.25;;
11614;SDS011;5863;52.832;4.758;2024-02-15T08:26:32;6.10;;;5.50;;
11614;SDS011;5863;52.832;4.758;2024-02-15T08:29:00;5.40;;;4.90;;
11614;SDS011;5863;52.832;4.758;2024-02-15T08:31:28;6.72;;;5.72;;
11614;SDS011;5863;52.832;4.758;2024-02-15T08:33:55;7.28;;;5.53;;
11614;SDS011;5863;52.832;4.758;2024-02-15T08:36:22;6.72;;;6.03;;
11614;SDS011;5863;52.832;4.758;2024-02-15T08:38:49;6.35;;;5.53;;
11614;SDS011;5863;52.832;4.758;2024-02-15T08:41:16;7.10;;;6.32;;
11614;SDS011;5863;52.832;4.758;2024-02-15T08:43:47;8.80;;;6.30;;
11614;SDS011;5863;52.832;4.758;2024-02-15T08:46:14;8.15;;;5.97;;
11614;SDS011;5863;52.832;4.758;2024-02-15T08:48:41;9.10;;;7.15;;
11614;SDS011;5863;52.832;4.758;2024-02-15T08:51:08;9.70;;;7.28;;
11614;SDS011;5863;52.832;4.758;2024-02-15T08:53:35;9.52;;;7.15;;
11614;SDS011;5863;52.832;4.758;2024-02-15T08:56:02;9.57;;;7.70;;
11614;SDS011;5863;52.832;4.758;2024-02-15T08:58:29;11.57;;;8.05;;
11614;SDS011;5863;52.832;4.758;2024-02-15T09:00:58;10.73;;;7.85;;
11614;SDS011;5863;52.832;4.758;2024-02-15T09:03:25;10.00;;;7.90;;
11614;SDS011;5863;52.832;4.758;2024-02-15T09:05:52;9.10;;;7.40;;
11614;SDS011;5863;52.832;4.758;2024-02-15T09:08:18;8.88;;;7.03;;
11614;SDS011;5863;52.832;4.758;2024-02-15T09:10:46;11.68;;;6.55;;
11614;SDS011;5863;52.832;4.758;2024-02-15T09:13:13;9.82;;;7.22;;
11614;SDS011;5863;52.832;4.758;2024-02-15T09:15:40;10.32;;;7.15;;
11614;SDS011;5863;52.832;4.758;2024-02-15T09:18:08;9.50;;;6.85;;
11614;SDS011;5863;52.832;4.758;2024-02-15T09:20:35;10.68;;;7.50;;
11614;SDS011;5863;52.832;4.758;2024-02-15T09:23:05;13.70;;;8.13;;
11614;SDS011;5863;52.832;4.758;2024-02-15T09:25:34;10.30;;;8.00;;
11614;SDS011;5863;52.832;4.758;2024-02-15T09:28:04;11.05;;;8.25;;
11614;SDS011;5863;52.832;4.758;2024-02-15T09:30:31;13.55;;;8.45;;
11614;SDS011;5863;52.832;4.758;2024-02-15T09:33:00;8.50;;;7.65;;
11614;SDS011;5863;52.832;4.758;2024-02-15T09:35:31;14.85;;;8.45;;
11614;SDS011;5863;52.832;4.758;2024-02-15T09:37:58;22.90;;;9.93;;
11614;SDS011;5863;52.832;4.758;2024-02-15T09:40:25;16.33;;;9.48;;
11614;SDS011;5863;52.832;4.758;2024-02-15T09:42:54;16.33;;;8.98;;
11614;SDS011;5863;52.832;4.758;2024-02-15T09:45:21;12.20;;;8.55;;
11614;SDS011;5863;52.832;4.758;2024-02-15T09:47:50;14.60;;;9.05;;
11614;SDS011;5863;52.832;4.758;2024-02-15T09:50:18;16.27;;;9.40;;
11614;SDS011;5863;52.832;4.758;2024-02-15T09:52:49;14.55;;;10.05;;
11614;SDS011;5863;52.832;4.758;2024-02-15T09:55:17;15.82;;;9.85;;
11614;SDS011;5863;52.832;4.758;2024-02-15T09:57:44;13.52;;;9.70;;
11614;SDS011;5863;52.832;4.758;2024-02-15T10:00:12;18.88;;;10.43;;
11614;SDS011;5863;52.832;4.758;2024-02-15T10:02:40;17.23;;;9.95;;
11614;SDS011;5863;52.832;4.758;2024-02-15T10:05:09;20.13;;;10.63;;
11614;SDS011;5863;52.832;4.758;2024-02-15T10:07:37;17.40;;;10.85;;
11614;SDS011;5863;52.832;4.758;2024-02-15T10:10:15;22.33;;;10.93;;
11614;SDS011;5863;52.832;4.758;2024-02-15T10:12:44;19.20;;;11.20;;
11614;SDS011;5863;52.832;4.758;2024-02-15T10:15:21;18.08;;;11.15;;
11614;SDS011;5863;52.832;4.758;2024-02-15T10:17:55;19.25;;;10.70;;
11614;SDS011;5863;52.832;4.758;2024-02-15T10:20:23;22.00;;;10.93;;
11614;SDS011;5863;52.832;4.758;2024-02-15T10:22:51;17.42;;;10.48;;
11614;SDS011;5863;52.832;4.758;2024-02-15T10:25:21;22.50;;;11.27;;
11614;SDS011;5863;52.832;4.758;2024-02-15T10:27:48;19.73;;;10.88;;
11614;SDS011;5863;52.832;4.758;2024-02-15T10:30:16;23.45;;;11.27;;
11614;SDS011;5863;52.832;4.758;2024-02-15T10:32:44;24.80;;;11.50;;
11614;SDS011;5863;52.832;4.758;2024-02-15T10:35:18;27.48;;;11.55;;
11614;SDS011;5863;52.832;4.758;2024-02-15T10:37:45;20.58;;;10.68;;
11614;SDS011;5863;52.832;4.758;2024-02-15T10:40:16;22.08;;;11.20;;
11614;SDS011;5863;52.832;4.758;2024-02-15T10:42:46;20.95;;;11.30;;
11614;SDS011;5863;52.832;4.758;2024-02-15T10:45:14;21.38;;;11.50;;
11614;SDS011;5863;52.832;4.758;2024-02-15T10:47:43;23.42;;;11.73;;
11614;SDS011;5863;52.832;4.758;2024-02-15T10:50:10;21.60;;;11.00;;
11614;SDS011;5863;52.832;4.758;2024-02-15T10:52:39;21.08;;;11.93;;
11614;SDS011;5863;52.832;4.758;2024-02-15T10:55:14;16.38;;;11.05;;
11614;SDS011;5863;52.832;4.758;2024-02-15T10:57:53;22.17;;;11.00;;
11614;SDS011;5863;52.832;4.758;2024-02-15T11:00:24;23.15;;;12.60;;
11614;SDS011;5863;52.832;4.758;2024-02-15T11:02:58;22.85;;;11.68;;
11614;SDS011;5863;52.832;4.758;2024-02-15T11:05:30;23.15;;;11.82;;
11614;SDS011;5863;52.832;4.758;2024-02-15T11:07:59;22.23;;;11.82;;
11614;SDS011;5863;52.832;4.758;2024-02-15T11:10:27;23.73;;;11.38;;
11614;SDS011;5863;52.832;4.758;2024-02-15T11:12:56;20.48;;;11.73;;
11614;SDS011;5863;52.832;4.758;2024-02-15T11:18:24;20.75;;;11.50;;
11614;SDS011;5863;52.832;4.758;2024-02-15T11:21:09;19.88;;;10.68;;
11614;SDS011;5863;52.832;4.758;2024-02-15T11:23:36;21.42;;;11.60;;
11614;SDS011;5863;52.832;4.758;2024-02-15T11:26:08;21.85;;;11.48;;
11614;SDS011;5863;52.832;4.758;2024-02-15T11:28:38;20.52;;;11.45;;
11614;SDS011;5863;52.832;4.758;2024-02-15T11:31:09;21.58;;;11.50;;
11614;SDS011;5863;52.832;4.758;2024-02-15T11:33:38;20.73;;;10.50;;
11614;SDS011;5863;52.832;4.758;2024-02-15T11:36:05;18.45;;;10.73;;
11614;SDS011;5863;52.832;4.758;2024-02-15T11:38:33;22.20;;;10.85;;
11614;SDS011;5863;52.832;4.758;2024-02-15T11:41:01;15.95;;;10.55;;
11614;SDS011;5863;52.832;4.758;2024-02-15T11:43:49;15.25;;;10.30;;
11614;SDS011;5863;52.832;4.758;2024-02-15T11:46:21;17.83;;;10.40;;
11614;SDS011;5863;52.832;4.758;2024-02-15T11:48:50;17.55;;;10.05;;
11614;SDS011;5863;52.832;4.758;2024-02-15T11:51:24;17.92;;;9.57;;
11614;SDS011;5863;52.832;4.758;2024-02-15T11:54:05;15.45;;;9.48;;
11614;SDS011;5863;52.832;4.758;2024-02-15T11:56:54;16.42;;;8.27;;
11614;SDS011;5863;52.832;4.758;2024-02-15T11:59:39;14.00;;;7.40;;
11614;SDS011;5863;52.832;4.758;2024-02-15T12:02:38;13.73;;;7.63;;
11614;SDS011;5863;52.832;4.758;2024-02-15T12:05:22;11.73;;;6.70;;
11614;SDS011;5863;52.832;4.758;2024-02-15T12:08:06;14.80;;;7.50;;
11614;SDS011;5863;52.832;4.758;2024-02-15T12:10:59;10.95;;;7.00;;
11614;SDS011;5863;52.832;4.758;2024-02-15T12:13:52;15.02;;;7.68;;
11614;SDS011;5863;52.832;4.758;2024-02-15T12:16:45;9.82;;;6.55;;
11614;SDS011;5863;52.832;4.758;2024-02-15T12:19:30;12.30;;;6.70;;
11614;SDS011;5863;52.832;4.758;2024-02-15T12:21:56;11.35;;;6.35;;
11614;SDS011;5863;52.832;4.758;2024-02-15T12:24:25;11.02;;;6.93;;
11614;SDS011;5863;52.832;4.758;2024-02-15T12:26:59;11.00;;;6.75;;
11614;SDS011;5863;52.832;4.758;2024-02-15T12:29:28;14.30;;;6.85;;
11614;SDS011;5863;52.832;4.758;2024-02-15T12:31:56;9.02;;;6.43;;
11614;SDS011;5863;52.832;4.758;2024-02-15T12:34:24;12.35;;;6.22;;
11614;SDS011;5863;52.832;4.758;2024-02-15T12:36:51;12.82;;;5.45;;
11614;SDS011;5863;52.832;4.758;2024-02-15T12:39:31;7.50;;;5.68;;
11614;SDS011;5863;52.832;4.758;2024-02-15T12:41:59;11.05;;;5.95;;
11614;SDS011;5863;52.832;4.758;2024-02-15T12:44:26;8.60;;;5.72;;
11614;SDS011;5863;52.832;4.758;2024-02-15T12:46:59;8.90;;;5.32;;
11614;SDS011;5863;52.832;4.758;2024-02-15T12:49:28;10.32;;;5.15;;
11614;SDS011;5863;52.832;4.758;2024-02-15T12:55:07;11.85;;;4.95;;
11614;SDS011;5863;52.832;4.758;2024-02-15T12:57:35;8.63;;;4.35;;
11614;SDS011;5863;52.832;4.758;2024-02-15T13:00:05;13.55;;;5.22;;
11614;SDS011;5863;52.832;4.758;2024-02-15T13:02:39;8.32;;;4.90;;
11614;SDS011;5863;52.832;4.758;2024-02-15T13:05:06;6.45;;;3.80;;
11614;SDS011;5863;52.832;4.758;2024-02-15T13:07:34;8.38;;;4.22;;
11614;SDS011;5863;52.832;4.758;2024-02-15T13:10:02;6.82;;;3.92;;
11614;SDS011;5863;52.832;4.758;2024-02-15T13:12:31;6.00;;;4.13;;
11614;SDS011;5863;52.832;4.758;2024-02-15T13:15:01;7.10;;;3.97;;
11614;SDS011;5863;52.832;4.758;2024-02-15T13:17:30;5.95;;;3.55;;
11614;SDS011;5863;52.832;4.758;2024-02-15T13:20:00;7.05;;;3.47;;
11614;SDS011;5863;52.832;4.758;2024-02-15T13:22:35;6.22;;;3.25;;
11614;SDS011;5863;52.832;4.758;2024-02-15T13:25:04;8.90;;;3.20;;
11614;SDS011;5863;52.832;4.758;2024-02-15T13:27:32;7.57;;;2.75;;
11614;SDS011;5863;52.832;4.758;2024-02-15T13:30:00;6.22;;;3.22;;
11614;SDS011;5863;52.832;4.758;2024-02-15T13:32:26;2.83;;;2.35;;
11614;SDS011;5863;52.832;4.758;2024-02-15T13:34:54;3.42;;;2.40;;
11614;SDS011;5863;52.832;4.758;2024-02-15T13:37:24;5.05;;;2.78;;
11614;SDS011;5863;52.832;4.758;2024-02-15T13:39:51;8.80;;;3.10;;
11614;SDS011;5863;52.832;4.758;2024-02-15T13:42:18;7.28;;;2.85;;
11614;SDS011;5863;52.832;4.758;2024-02-15T13:44:45;5.05;;;3.28;;
11614;SDS011;5863;52.832;4.758;2024-02-15T13:47:13;6.38;;;4.22;;
11614;SDS011;5863;52.832;4.758;2024-02-15T13:49:41;9.45;;;5.97;;
11614;SDS011;5863;52.832;4.758;2024-02-15T13:52:08;8.00;;;5.90;;
11614;SDS011;5863;52.832;4.758;2024-02-15T13:54:37;9.55;;;6.32;;
11614;SDS011;5863;52.832;4.758;2024-02-15T13:57:04;8.75;;;6.13;;
11614;SDS011;5863;52.832;4.758;2024-02-15T13:59:32;9.27;;;5.72;;
11614;SDS011;5863;52.832;4.758;2024-02-15T14:01:59;11.00;;;6.93;;
11614;SDS011;5863;52.832;4.758;2024-02-15T14:04:28;7.65;;;6.35;;
11614;SDS011;5863;52.832;4.758;2024-02-15T14:06:57;13.35;;;6.35;;
11614;SDS011;5863;52.832;4.758;2024-02-15T14:09:24;8.80;;;6.53;;
11614;SDS011;5863;52.832;4.758;2024-02-15T14:11:53;10.82;;;7.03;;
11614;SDS011;5863;52.832;4.758;2024-02-15T14:14:20;12.23;;;7.03;;
11614;SDS011;5863;52.832;4.758;2024-02-15T14:16:47;8.95;;;6.90;;
11614;SDS011;5863;52.832;4.758;2024-02-15T14:19:14;10.70;;;7.38;;
11614;SDS011;5863;52.832;4.758;2024-02-15T14:21:42;8.05;;;6.88;;
11614;SDS011;5863;52.832;4.758;2024-02-15T14:24:10;10.73;;;6.97;;
11614;SDS011;5863;52.832;4.758;2024-02-15T14:26:38;11.95;;;5.70;;
11614;SDS011;5863;52.832;4.758;2024-02-15T14:29:07;10.98;;;6.20;;
11614;SDS011;5863;52.832;4.758;2024-02-15T14:31:34;7.75;;;6.40;;
11614;SDS011;5863;52.832;4.758;2024-02-15T14:34:18;12.88;;;7.25;;
11614;SDS011;5863;52.832;4.758;2024-02-15T14:36:45;8.60;;;6.80;;
11614;SDS011;5863;52.832;4.758;2024-02-15T14:39:13;9.57;;;6.30;;
11614;SDS011;5863;52.832;4.758;2024-02-15T14:41:40;8.15;;;6.38;;
11614;SDS011;5863;52.832;4.758;2024-02-15T14:44:09;10.57;;;6.70;;
11614;SDS011;5863;52.832;4.758;2024-02-15T14:46:37;10.10;;;6.63;;
11614;SDS011;5863;52.832;4.758;2024-02-15T14:49:05;7.22;;;6.20;;
11614;SDS011;5863;52.832;4.758;2024-02-15T14:51:33;6.90;;;5.43;;
11614;SDS011;5863;52.832;4.758;2024-02-15T14:54:02;7.43;;;5.45;;
11614;SDS011;5863;52.832;4.758;2024-02-15T14:56:29;6.55;;;5.25;;
11614;SDS011;5863;52.832;4.758;2024-02-15T14:58:58;7.18;;;4.75;;
11614;SDS011;5863;52.832;4.758;2024-02-15T15:01:26;8.05;;;5.05;;
11614;SDS011;5863;52.832;4.758;2024-02-15T15:03:54;6.32;;;5.03;;
11614;SDS011;5863;52.832;4.758;2024-02-15T15:06:23;6.50;;;4.90;;
11614;SDS011;5863;52.832;4.758;2024-02-15T15:09:08;6.68;;;5.10;;